SKRG Airport Information

Runway Information
Runway 18 Length 11483 ft width 148 ft
Elevation 7025 ft Threshold 0 ft Heading 180
Runway 36 Length 11483 ft Width 148 ft
Elevation 6967 ft Threshold 0 ft Heading 360
Airport Frequencies
Type APP Name MEDELLIN A Frequency 121.1 MHZ
Type ATIS Name ATIS Frequency 115.1 MHZ
Type GND Name GND Frequency 121.9 MHZ
Type INFO Name MEDELLIN F Frequency 127.2 MHZ
Type RDO Name MEDELLIN R Frequency 348.8 MHZ
Type RDO Name MEDELLIN R Frequency 891.8 MHZ
Type TWR Name TWR Frequency 118.6 MHZ
Airport Navaids
Type NDB Name Medellin Frequency 274 KHZ
Type VOR-DME Name Marinilla Frequency 113000 KHZ
Type VOR-DME Name Rionegro Frequency 115100 KHZ
Airport Weather Information & NOTAM
ADDS - METARS form results

(2047 UTC 21 April 2018)
 
METAR text: SKRG 212000Z 12010KT 9999 FEW020 BKN200 23/11 A3021
Conditions at: SKRG (RIONEGRO/JOSE MA, CO) observed 2000 UTC 21 April 2018
Temperature: 23.0°C (73°F)
Dewpoint: 11.0°C (52°F) [RH = 47%]
Pressure (altimeter): 30.21 inches Hg (1023.1 mb)
Winds: from the ESE (120 degrees) at 12 MPH (10 knots; 5.2 m/s)
Visibility: 6 or more miles (10+ km)
Ceiling: 20000 feet AGL
Clouds: few clouds at 2000 feet AGL
broken clouds at 20000 feet AGL
Weather: no significant weather observed at this time